^^
Datos históricos de la estación: Murcia-Puente Tocinos
Diario Informe para Junio 12, 2021 Unidades:  Ingés    Métrico   Ambas
Diario Semanal Mensual Anual
  Máxima: Mínima: Promedio:
Temperatura: 76.5 °F 63.3 °F 69.1 °F
Punto de rocio: 61 °F 52 °F 58.3 °F
Humedad: 84% 43.1% 70%
Velocidad viento: 7.4mph 0mph 3.2mph
Racha viento: 15mph - -
Viento- - SSE
Presión: 30.1 in 30 in -
Precipitación: 0 in    
 
 
Tabla de datos para Junio 12, 2021
Hora Temperatura Punto de rocio Presión Viento Velocidad viento Racha viento Humedad Intensidad lluvia(por hora) Nubes
00:04 67.6 °F 61 °F 30.1 in NO 2.4 mph 3.5 mph 79% 0 in
00:09 67.6 °F 61 °F 30.1 in NO 2.1 mph 2.9 mph 79% 0 in
00:14 67.6 °F 61 °F 30.1 in NO 1.4 mph 3.5 mph 79% 0 in
00:19 67.6 °F 61 °F 30.1 in NO 1.4 mph 3.6 mph 79% 0 in
00:24 67.6 °F 60.8 °F 30.1 in NO 1.4 mph 3.6 mph 79% 0 in
00:29 67.5 °F 60.6 °F 30.1 in Oeste 1.8 mph 4.6 mph 79% 0 in
00:34 67.5 °F 60.6 °F 30.1 in Oeste 2.4 mph 4.6 mph 79% 0 in
00:39 67.3 °F 60.4 °F 30.1 in Oeste 2.6 mph 4.6 mph 79% 0 in
00:44 67.3 °F 60.4 °F 30.1 in Oeste 2.9 mph 2.9 mph 79% 0 in
00:49 67.1 °F 60.4 °F 30.1 in Oeste 2.3 mph 3.1 mph 79% 0 in
00:54 67.1 °F 60.4 °F 30.1 in Oeste 1.8 mph 3.5 mph 79% 0 in
00:59 67.1 °F 60.4 °F 30.1 in Oeste 1.8 mph 2.9 mph 79% 0 in
01:04 67.1 °F 60.4 °F 30.1 in Oeste 1.8 mph 2.3 mph 79% 0 in
01:09 67.3 °F 60.4 °F 30.1 in Oeste 1.1 mph 2.4 mph 79% 0 in
01:14 67.3 °F 60.4 °F 30.1 in Calm   3.5 mph 79% 0 in
01:19 67.3 °F 60.4 °F 30.1 in SE 0.7 mph 4.6 mph 79% 0 in
01:24 67.3 °F 60.4 °F 30.1 in SE 1.8 mph 4.6 mph 79% 0 in
01:29 67.3 °F 60.4 °F 30.1 in SE 1.8 mph 3.1 mph 79% 0 in
01:34 67.3 °F 60.4 °F 30.1 in SE 1.8 mph 4.6 mph 79% 0 in
01:39 67.1 °F 60.4 °F 30.1 in SSE 2.2 mph 5.9 mph 79% 0 in
01:44 66.7 °F 60.4 °F 30.1 in SSE 2.9 mph 5.8 mph 79.9% 0 in
01:49 66.6 °F 60.3 °F 30.1 in Sur 3 mph 4.7 mph 80.1% 0 in
01:54 66.6 °F 60.4 °F 30.1 in Sur 3.1 mph 4.6 mph 81% 0 in
01:59 66.4 °F 60.4 °F 30.1 in Sur 3 mph 4.6 mph 81% 0 in
02:04 66.4 °F 60.4 °F 30.1 in Sur 2.9 mph 5.2 mph 81% 0 in
02:09 66.4 °F 60.4 °F 30.1 in SSO 3 mph 5.9 mph 81% 0 in
02:14 66.6 °F 60.4 °F 30.1 in SSO 3.1 mph 4.7 mph 81% 0 in
02:19 66.6 °F 60.4 °F 30.1 in SSO 2.8 mph 4.6 mph 81% 0 in
02:24 66.6 °F 60.4 °F 30.1 in SSO 2.4 mph 5.9 mph 81% 0 in
02:29 66.7 °F 60.4 °F 30.1 in SSO 2.7 mph 4.6 mph 80.2% 0 in
02:34 66.7 °F 60.4 °F 30.1 in SSO 3.1 mph 3.5 mph 80% 0 in
02:39 66.7 °F 60.4 °F 30.1 in Oeste 2.7 mph 3.6 mph 80% 0 in
02:44 66.7 °F 60.1 °F 30.1 in Oeste 2 mph 3.6 mph 79.1% 0 in
02:49 66.7 °F 60.1 °F 30.1 in Oeste 2 mph 3.5 mph 79% 0 in
02:54 66.7 °F 60.1 °F 30.1 in Oeste 2 mph 3.5 mph 79% 0 in
02:59 66.7 °F 60.1 °F 30.1 in Oeste 1.9 mph 3.5 mph 79% 0 in
03:04 66.7 °F 60.4 °F 30.1 in Oeste 1.8 mph 2.4 mph 79.9% 0 in
03:09 66.9 °F 60.4 °F 30.1 in Oeste 1.8 mph 3.5 mph 80% 0 in
03:14 66.9 °F 60.4 °F 30.1 in Oeste 1.8 mph 2.3 mph 80% 0 in
03:19 66.9 °F 60.4 °F 30.1 in Oeste 1.1 mph 2.4 mph 80% 0 in
03:24 66.7 °F 60.4 °F 30.1 in Calm   2.3 mph 80% 0 in
03:29 66.7 °F 60.3 °F 30.1 in Calm     79.6% 0 in
03:34 66.7 °F 60.1 °F 30.1 in Calm   1.4 mph 79.2% 0 in
03:39 66.7 °F 60.4 °F 30.1 in Calm   2.3 mph 80% 0 in
03:44 66.6 °F 60.3 °F 30.1 in Calm   2.3 mph 80% 0 in
03:49 66.6 °F 60.3 °F 30.1 in Calm     80% 0 in
03:54 66.6 °F 60.1 °F 30.1 in Calm   2.9 mph 80% 0 in
03:59 66.4 °F 59.9 °F 30.1 in Oeste 0.6 mph 2.3 mph 80% 0 in
04:04 66 °F 59.9 °F 30.1 in Oeste 1.4 mph 2.9 mph 80.4% 0 in
04:09 66 °F 60.1 °F 30.1 in Oeste 1.4 mph 2.9 mph 81% 0 in
04:14 66 °F 60.1 °F 30.1 in Oeste 1.4 mph 2.4 mph 81% 0 in
04:19 66 °F 59.9 °F 30.1 in Oeste 1.4 mph 2.3 mph 81% 0 in
04:24 65.8 °F 59.7 °F 30.1 in Oeste 1.4 mph 2.9 mph 81% 0 in
04:29 65.8 °F 59.7 °F 30.1 in Oeste 1.4 mph 2.4 mph 81% 0 in
04:34 65.8 °F 59.9 °F 30.1 in Oeste 1.4 mph 2.3 mph 81.2% 0 in
04:39 65.7 °F 60.1 °F 30.1 in Oeste 0.9 mph 2.3 mph 82% 0 in
04:44 65.7 °F 60.1 °F 30.1 in Calm   2.9 mph 82% 0 in
04:49 65.7 °F 60.1 °F 30.1 in Oeste 0.6 mph 2.9 mph 82% 0 in
04:54 65.7 °F 60.1 °F 30.1 in Oeste 1.4 mph 3.6 mph 82% 0 in
04:59 65.5 °F 59.9 °F 30.1 in SSO 1.7 mph 4.6 mph 82% 0 in
05:04 65.5 °F 59.7 °F 30.1 in SSO 2 mph 2.4 mph 82% 0 in
05:09 65.5 °F 59.7 °F 30.1 in SSO 1.8 mph 2.3 mph 82% 0 in
05:14 65.3 °F 59.7 °F 30.1 in OSO 1.4 mph 3.5 mph 82% 0 in
05:19 65.1 °F 59.5 °F 30.1 in ONO 1.4 mph 3.6 mph 82.1% 0 in
05:24 65.1 °F 59.7 °F 30.1 in NO 1.4 mph 3.5 mph 83% 0 in
05:29 65.1 °F 59.7 °F 30.1 in NO 1.6 mph 3.5 mph 83% 0 in
05:34 64.9 °F 59.7 °F 30.1 in SO 1.8 mph 2.9 mph 83% 0 in
05:39 64.9 °F 59.7 °F 30.1 in NO 1.8 mph 3.6 mph 83% 0 in
05:44 64.8 °F 59.5 °F 30.1 in OSO 1.8 mph 2.9 mph 83.1% 0 in
05:49 64.8 °F 59.7 °F 30.1 in Sur 1.7 mph 2.4 mph 84% 0 in
05:54 64.8 °F 59.9 °F 30.1 in Sur 1.4 mph 4.6 mph 84% 0 in
05:59 64.9 °F 59.7 °F 30.1 in SSE 1.6 mph 4.7 mph 83% 0 in
06:04 64.9 °F 59.7 °F 30.1 in SE 2 mph 4.6 mph 83% 0 in
06:09 64.9 °F 59.7 °F 30.1 in SE 1.9 mph 3.6 mph 83% 0 in
06:14 64.9 °F 59.7 °F 30.1 in SSE 1.8 mph 3.6 mph 83% 0 in
06:19 64.9 °F 59.7 °F 30.1 in SSO 1.9 mph 3.6 mph 83% 0 in
06:24 64.9 °F 59.5 °F 30.1 in SO 2 mph 3.6 mph 83% 0 in
06:29 64.9 °F 59.7 °F 30.1 in SSE 1.9 mph 3.5 mph 83% 0 in
06:34 64.9 °F 59.7 °F 30.1 in SE 1.8 mph 3.5 mph 83% 0 in
06:39 64.8 °F 59.4 °F 30.1 in SSE 1.9 mph 5.2 mph 82.3% 0 in
06:44 64.8 °F 59.2 °F 30.1 in SSE 2 mph 4.6 mph 82.4% 0 in
06:49 64.6 °F 59.4 °F 30.1 in Sur 2 mph 3.5 mph 83% 0 in
06:54 64.6 °F 59 °F 30.1 in Sur 2 mph 3.6 mph 82.1% 0 in
06:59 64.6 °F 59 °F 30.1 in SSE 2 mph 4.6 mph 82% 0 in
07:04 64.6 °F 59 °F 30.1 in SE 2 mph 4.6 mph 82% 0 in
07:09 64.6 °F 59 °F 30.1 in NNE 2 mph 4.6 mph 82.1% 0 in
07:14 64.4 °F 58.8 °F 30.1 in ENE 2 mph 4.6 mph 82% 0 in
07:19 64.2 °F 58.6 °F 30.1 in ESE 2 mph 2.4 mph 82% 0 in
07:24 64.2 °F 58.6 °F 30.1 in SE 2 mph 4.6 mph 82% 0 in
07:29 64.2 °F 58.6 °F 30.1 in SSE 2.4 mph 5.8 mph 82% 0 in
07:34 64 °F 58.5 °F 30.1 in SSE 2.9 mph 4.7 mph 82% 0 in
07:39 64 °F 58.5 °F 30.1 in Sur 3 mph 6.2 mph 82% 0 in
07:44 63.9 °F 58.3 °F 30.1 in SSE 3.1 mph 6.2 mph 82% 0 in
07:49 63.7 °F 58.1 °F 30.1 in SSE 3.5 mph 5.8 mph 82% 0 in
07:54 63.7 °F 58.1 °F 30.1 in Sur 4.3 mph 5.8 mph 82% 0 in
07:59 63.7 °F 58.1 °F 30.1 in Sur 3.8 mph 5.2 mph 82% 0 in
08:04 63.5 °F 57.9 °F 30.1 in SSE 3.1 mph 4.7 mph 82% 0 in
08:09 63.3 °F 57.7 °F 30.1 in SSO 3.1 mph 5.9 mph 82% 0 in
08:14 63.3 °F 57.7 °F 30.1 in SSO 3.1 mph 5.8 mph 82% 0 in
08:19 63.3 °F 57.7 °F 30.1 in SSO 3 mph 4.7 mph 82% 0 in
08:24 63.3 °F 57.7 °F 30.1 in SSO 2.9 mph 4.6 mph 82% 0 in
08:29 63.3 °F 57.7 °F 30.1 in SSO 2.5 mph 3.5 mph 82% 0 in
08:34 63.3 °F 57.6 °F 30.1 in SO 1.8 mph 4.3 mph 81.6% 0 in
08:39 63.3 °F 57.4 °F 30.1 in SO 1.9 mph 4.6 mph 81% 0 in
08:44 63.3 °F 57.4 °F 30.1 in SO 2 mph 5.2 mph 81% 0 in
08:49 63.3 °F 57.4 °F 30.1 in SO 2.2 mph 4.6 mph 81% 0 in
08:54 63.3 °F 57.6 °F 30.1 in SO 2.4 mph 4.6 mph 81% 0 in
08:59 63.5 °F 57.6 °F 30.1 in SO 2.4 mph 3.6 mph 81% 0 in
09:04 63.7 °F 57.7 °F 30.1 in SO 2.4 mph 4.6 mph 81% 0 in
09:09 63.7 °F 57.7 °F 30.1 in SO 2.4 mph 3.6 mph 81% 0 in
09:14 63.9 °F 57.7 °F 30.1 in SSO 2.4 mph 5.2 mph 81% 0 in
09:19 63.9 °F 57.9 °F 30.1 in SSO 2.4 mph 4 mph 81% 0 in
09:24 64 °F 58.1 °F 30.1 in SO 2.4 mph 4.6 mph 81% 0 in
09:29 64.2 °F 58.1 °F 30.1 in SO 2.6 mph 4.7 mph 80.2% 0 in
09:34 64.6 °F 58.3 °F 30.1 in OSO 2.9 mph 5.2 mph 79.9% 0 in
09:39 64.8 °F 58.1 °F 30.1 in SO 2.5 mph 4.6 mph 79% 0 in
09:44 64.8 °F 58.3 °F 30.1 in OSO 2 mph 4.3 mph 79% 0 in
09:49 64.9 °F 58.3 °F 30.1 in OSO 2.2 mph 4.6 mph 79% 0 in
09:54 64.9 °F 58.3 °F 30.1 in OSO 2.4 mph 3.5 mph 79% 0 in
09:59 65.1 °F 58.5 °F 30.1 in SSO 2.2 mph 4.3 mph 79% 0 in
10:04 65.7 °F 58.8 °F 30.1 in SSE 2 mph 4.7 mph 79% 0 in
10:09 65.8 °F 59 °F 30.1 in SSO 2.4 mph 5.9 mph 78.9% 0 in
10:14 65.8 °F 59 °F 30.1 in Sur 3.1 mph 6.4 mph 78.5% 0 in
10:19 66 °F 59 °F 30.1 in Sur 3.4 mph 6.9 mph 78% 0 in
10:24 66.2 °F 59.2 °F 30.1 in Sur 4 mph 5.8 mph 78% 0 in
10:29 66.4 °F 59.2 °F 30.1 in SSO 3.7 mph 4.6 mph 77.7% 0 in
10:34 66.6 °F 59.4 °F 30.1 in SSO 3.1 mph 3.6 mph 77.2% 0 in
10:39 66.7 °F 59.2 °F 30.1 in Sur 2.9 mph 6.2 mph 76.5% 0 in
10:44 67.1 °F 59.2 °F 30.1 in SSE 2.4 mph 4.6 mph 76% 0 in
10:49 67.3 °F 59.5 °F 30.1 in SSO 2.4 mph 4.6 mph 75.9% 0 in
10:54 67.6 °F 59.4 °F 30.1 in SSO 2.4 mph 2.9 mph 75.3% 0 in
10:59 67.8 °F 59.2 °F 30.1 in SSO 2.2 mph 2.9 mph 74.1% 0 in
11:04 68 °F 59.4 °F 30.1 in SSE 1.8 mph 4.6 mph 73.9% 0 in
11:09 68.5 °F 59.5 °F 30.1 in SSE 1.9 mph 4.6 mph 73% 0 in
11:14 68.7 °F 59.4 °F 30.1 in SO 2 mph 6.2 mph 72.2% 0 in
11:19 69.3 °F 59.7 °F 30.1 in SSO 2 mph 3.5 mph 72% 0 in
11:24 69.8 °F 59.9 °F 30.1 in Sur 2 mph 3.5 mph 71.1% 0 in
11:29 70.2 °F 59.9 °F 30.1 in SSE 2 mph 4.6 mph 70.1% 0 in
11:34 70.3 °F 59.9 °F 30.1 in Sur 2 mph 3.5 mph 69.3% 0 in
11:35 70.3 °F 59.7 °F 30.1 in OSO 2 mph 3.5 mph 69% 0 in
11:44 70.5 °F 59.9 °F 30.1 in NNE 1.8 mph 3.5 mph 69% 0 in
11:49 70.5 °F 59.7 °F 30.1 in North 2.2 mph 4.6 mph 68.8% 0 in
11:51 70.5 °F 59.7 °F 30.1 in NNE 2.9 mph 5.9 mph 68.7% 0 in
11:59 70.5 °F 59.4 °F 30.1 in ENE 3 mph 8.7 mph 68% 0 in
12:04 70.3 °F 59.5 °F 30.1 in NNO 3.1 mph 9.2 mph 68.8% 0 in
12:09 70.5 °F 59.9 °F 30.1 in NNE 3.1 mph 6.9 mph 69.3% 0 in
12:14 70.9 °F 59.7 °F 30.1 in NE 3.1 mph 6.9 mph 68% 0 in
12:19 70.9 °F 59.4 °F 30.1 in NE 3.4 mph 9.2 mph 67.1% 0 in
12:24 70.5 °F 59 °F 30.1 in NNO 4 mph 8.1 mph 67.1% 0 in
12:29 70.5 °F 59.2 °F 30.1 in NE 4 mph 6.2 mph 67.6% 0 in
12:34 70.5 °F 59 °F 30.1 in ENE 4 mph 6.9 mph 67% 0 in
12:39 70.5 °F 59 °F 30.1 in NE 4.1 mph 7.4 mph 67% 0 in
12:44 70.9 °F 59.4 °F 30.1 in Este 4.3 mph 6.9 mph 66.7% 0 in
12:49 71.2 °F 59.2 °F 30.1 in NNE 4 mph 5.8 mph 65.6% 0 in
12:54 71.4 °F 59.2 °F 30.1 in NNE 3.6 mph 5.9 mph 65.5% 0 in
12:59 71.6 °F 59 °F 30.1 in NE 3.4 mph 6.9 mph 64.6% 0 in
13:04 71.8 °F 59 °F 30.1 in ENE 3.1 mph 6.2 mph 64% 0 in
13:09 72.1 °F 59 °F 30.1 in NE 3.1 mph 6.9 mph 63.3% 0 in
13:14 72.3 °F 59 °F 30.1 in ENE 3.1 mph 6.9 mph 62.7% 0 in
13:19 72.7 °F 58.8 °F 30.1 in NE 3.3 mph 8.1 mph 62% 0 in
13:24 72.3 °F 58.6 °F 30.1 in ENE 3.6 mph 6.4 mph 62% 0 in
13:29 72.3 °F 58.1 °F 30 in NNE 3.7 mph 6.9 mph 60.8% 0 in
13:34 72.5 °F 57.9 °F 30 in NNE 4 mph 8.1 mph 60.3% 0 in
13:39 72.7 °F 57.9 °F 30 in NNE 4.1 mph 8.1 mph 60% 0 in
13:44 72.7 °F 57.9 °F 30 in North 4.3 mph 8.1 mph 60% 0 in
13:49 72.9 °F 57.9 °F 30 in NNE 4.2 mph 9.7 mph 59.6% 0 in
13:54 72.9 °F 57.7 °F 30 in ENE 4 mph 10.4 mph 59% 0 in
13:59 73 °F 57.9 °F 30 in NE 4.1 mph 6.9 mph 59% 0 in
14:04 73.4 °F 57.7 °F 30 in NE 4.3 mph 8.1 mph 58% 0 in
14:09 73.6 °F 57 °F 30 in North 4.3 mph 6.9 mph 56.1% 0 in
14:14 73.6 °F 56.7 °F 30 in NNO 4.3 mph 7.6 mph 55.7% 0 in
14:19 73.6 °F 56.3 °F 30 in NNE 4.2 mph 8.1 mph 54.7% 0 in
14:24 73.8 °F 56.3 °F 30 in NNE 4 mph 10.2 mph 54.4% 0 in
14:29 73.9 °F 55.6 °F 30 in NE 4.5 mph 10.4 mph 52.9% 0 in
14:34 73.9 °F 55.6 °F 30 in NNE 5.4 mph 9.2 mph 52.6% 0 in
14:39 74.1 °F 55.4 °F 30 in NNE 5 mph 8.1 mph 52% 0 in
14:44 74.3 °F 55.8 °F 30 in NNE 4.3 mph 6.9 mph 52.2% 0 in
14:49 74.8 °F 55.9 °F 30 in NE 4 mph 5.8 mph 51.8% 0 in
14:54 75.2 °F 55.8 °F 30 in NE 3.6 mph 6.9 mph 51% 0 in
14:59 75.6 °F 56.1 °F 30 in North 3.8 mph 9.2 mph 51% 0 in
15:04 75.7 °F 55.9 °F 30 in North 4 mph 10.2 mph 50.4% 0 in
15:09 75.6 °F 55.2 °F 30 in NNE 4.4 mph 11.5 mph 49.1% 0 in
15:14 75.4 °F 54.9 °F 30 in NNE 5.2 mph 9.2 mph 49% 0 in
15:19 75.4 °F 54.9 °F 30 in NE 5.3 mph 10.4 mph 49% 0 in
15:24 75.4 °F 54.3 °F 30 in North 5.4 mph 10.4 mph 48.1% 0 in
15:29 75.6 °F 55 °F 30 in NNE 5 mph 6.9 mph 48.8% 0 in
15:34 75.7 °F 54.5 °F 30 in NE 4.3 mph 6.9 mph 47.4% 0 in
15:39 76.1 °F 53.6 °F 30 in NE 4.5 mph 9.2 mph 45.5% 0 in
15:44 75.9 °F 52.5 °F 30 in NE 4.7 mph 10.7 mph 43.9% 0 in
15:49 75.9 °F 52 °F 30 in NNE 4.5 mph 10.4 mph 43.1% 0 in
15:54 76.1 °F 53.1 °F 30 in NE 4.3 mph 13 mph 44.8% 0 in
15:59 75.9 °F 53.8 °F 30 in ENE 5.2 mph 13 mph 46.1% 0 in
16:04 75.9 °F 52.7 °F 30 in ENE 6.4 mph 8.5 mph 44.5% 0 in
16:09 76.1 °F 53.4 °F 30 in NE 5.8 mph 10.4 mph 45.3% 0 in
16:14 76.3 °F 54.5 °F 30 in NE 4.7 mph 10.4 mph 46.9% 0 in
16:19 76.5 °F 54.3 °F 30 in ENE 4.5 mph 9.2 mph 46.3% 0 in
16:24 76.5 °F 55 °F 30 in ENE 4.3 mph 10.7 mph 47.5% 0 in
16:29 76.5 °F 55.8 °F 30 in NE 4.5 mph 10 mph 48.7% 0 in
16:34 76.5 °F 56.3 °F 30 in NE 4.7 mph 13 mph 49.8% 0 in
16:39 76.1 °F 56.1 °F 30 in NE 5.7 mph 15 mph 50.1% 0 in
16:44 76.1 °F 56.1 °F 30 in NE 7.4 mph 9.2 mph 50% 0 in
16:49 76.1 °F 56.1 °F 30 in Este 6.5 mph 9.2 mph 50% 0 in
16:54 76.3 °F 56.3 °F 30 in ENE 5.2 mph 10.4 mph 50.2% 0 in
16:59 76.3 °F 56.8 °F 30 in NE 5.5 mph 11.5 mph 51.1% 0 in
17:04 75.9 °F 56.7 °F 30 in NE 5.9 mph 10.4 mph 51% 0 in
17:09 75.9 °F 56.5 °F 30 in NE 5.9 mph 9.7 mph 51% 0 in
17:14 75.7 °F 56.5 °F 30 in NE 5.9 mph 11.5 mph 51% 0 in
17:19 75.6 °F 56.5 °F 30 in NE 6 mph 11.5 mph 51.4% 0 in
17:24 75.6 °F 56.8 °F 30 in NE 6.2 mph 11.8 mph 52.3% 0 in
17:29 75.6 °F 56.8 °F 30 in ENE 6.1 mph 10.7 mph 52.3% 0 in
17:34 75.6 °F 57.2 °F 30 in ENE 5.9 mph 10.7 mph 52.9% 0 in
17:39 75.6 °F 57.4 °F 30 in ENE 6 mph 11.5 mph 53.3% 0 in
17:44 75.4 °F 57.2 °F 30 in ENE 6.2 mph 11.5 mph 53.2% 0 in
17:49 75.4 °F 57.6 °F 30 in ENE 6.1 mph 10.7 mph 53.7% 0 in
17:54 75.2 °F 57.2 °F 30 in NE 5.9 mph 12.7 mph 53.4% 0 in
17:59 74.8 °F 57.2 °F 30 in NE 6.1 mph 11.5 mph 53.9% 0 in
18:04 74.7 °F 57 °F 30 in ENE 6.4 mph 12.7 mph 54.1% 0 in
18:09 74.7 °F 57 °F 30 in NE 6.3 mph 9.7 mph 54.1% 0 in
18:14 74.7 °F 57.6 °F 30 in Este 6.2 mph 9.2 mph 55.2% 0 in
18:19 74.7 °F 57.9 °F 30 in Este 5.9 mph 8.5 mph 56% 0 in
18:24 74.7 °F 57.6 °F 30 in Este 5.4 mph 8.1 mph 55.5% 0 in
18:29 74.3 °F 57.7 °F 30 in Este 5.4 mph 9.7 mph 56.2% 0 in
18:34 74.1 °F 57.9 °F 30 in ESE 5.4 mph 11.5 mph 57.3% 0 in
18:39 73.8 °F 58.1 °F 30 in ESE 6 mph 9.7 mph 58% 0 in
18:44 73.8 °F 58.1 °F 30 in ESE 6.9 mph 10.7 mph 58.2% 0 in
18:49 73.8 °F 58.5 °F 30 in ESE 6.3 mph 8.5 mph 59% 0 in
18:54 73.8 °F 58.5 °F 30 in ESE 5.4 mph 9.7 mph 59% 0 in
18:59 73.4 °F 58.3 °F 30 in ESE 5.3 mph 8.1 mph 59% 0 in
19:04 73.2 °F 58.3 °F 30 in ESE 5.2 mph 8.5 mph 59.5% 0 in
19:09 73 °F 58.3 °F 30 in ESE 5.6 mph 10.4 mph 60% 0 in
19:14 72.9 °F 58.1 °F 30 in ESE 6.2 mph 8.1 mph 60.2% 0 in
19:19 72.7 °F 58.5 °F 30 in ESE 5.8 mph 6.9 mph 61% 0 in
19:24 72.3 °F 58.1 °F 30 in ESE 5.2 mph 7.6 mph 61% 0 in
19:29 72.1 °F 57.9 °F 30 in ESE 4.8 mph 8.1 mph 61% 0 in
19:34 72 °F 57.9 °F 30 in ESE 4.3 mph 10.4 mph 61.3% 0 in
19:39 71.6 °F 57.9 °F 30 in Este 4.7 mph 8.5 mph 62% 0 in
19:44 71.4 °F 57.7 °F 30 in ESE 5.4 mph 6.9 mph 62% 0 in
19:49 71.2 °F 57.6 °F 30 in ESE 5.3 mph 8.5 mph 62% 0 in
19:54 71.1 °F 57.4 °F 30 in ESE 5.2 mph 10.4 mph 62% 0 in
19:59 70.9 °F 57.2 °F 30 in Este 5.3 mph 8.1 mph 62% 0 in
20:04 70.9 °F 57.2 °F 30 in Este 5.4 mph 8.1 mph 62% 0 in
20:09 70.7 °F 57 °F 30 in ESE 5.3 mph 10.4 mph 62% 0 in
20:14 70.5 °F 56.8 °F 30 in Este 5.2 mph 6.9 mph 62% 0 in
20:19 70.3 °F 57.2 °F 30 in Este 5 mph 9.2 mph 62.8% 0 in
20:24 70.3 °F 57 °F 30 in Este 4.7 mph 8.1 mph 63% 0 in
20:29 70.2 °F 57 °F 30 in ESE 4.7 mph 7.6 mph 63% 0 in
20:34 70.2 °F 57 °F 30 in ESE 4.7 mph 8.5 mph 63% 0 in
20:39 70 °F 57 °F 30 in ESE 4.9 mph 7.6 mph 63.6% 0 in
20:44 70 °F 57.2 °F 30 in ESE 5.2 mph 8.1 mph 64% 0 in
20:49 70 °F 57.2 °F 30 in Este 5 mph 6.9 mph 64.2% 0 in
20:54 69.8 °F 57.4 °F 30 in Este 4.7 mph 6.2 mph 65% 0 in
20:59 69.6 °F 57.4 °F 30 in ENE 4.3 mph 5.8 mph 65% 0 in
21:04 69.4 °F 57.4 °F 30 in ENE 3.6 mph 5.8 mph 65.5% 0 in
21:09 69.3 °F 57.4 °F 30 in ENE 3.4 mph 7.4 mph 66% 0 in
21:14 69.3 °F 57.4 °F 30 in ENE 2.9 mph 6.2 mph 66% 0 in
21:19 69.1 °F 57.7 °F 30 in NE 3 mph 4.7 mph 66.9% 0 in
21:24 69.1 °F 57.6 °F 30 in NE 3.1 mph 5.8 mph 67% 0 in
21:29 68.7 °F 57.4 °F 30 in NNE 3.1 mph 5.9 mph 67% 0 in
21:34 68.7 °F 57.6 °F 30 in NNE 3.1 mph 4.6 mph 67.8% 0 in
21:39 68.5 °F 57.6 °F 30 in NNE 3 mph 4.6 mph 68% 0 in
21:44 68.4 °F 57.6 °F 30 in North 2.9 mph 4.6 mph 68.6% 0 in
21:49 68.2 °F 57.6 °F 30 in North 2.5 mph 2.9 mph 69% 0 in
21:54 67.8 °F 57.7 °F 30 in NNE 2 mph 4.6 mph 70% 0 in
21:59 67.6 °F 57.6 °F 30 in NNE 2.2 mph 3.6 mph 70% 0 in
22:04 67.6 °F 57.7 °F 30 in NNE 2.4 mph 2.4 mph 70.5% 0 in
22:09 67.5 °F 57.7 °F 30 in NNE 2.2 mph 3.6 mph 71% 0 in
22:14 67.3 °F 57.6 °F 30 in North 1.8 mph 3.6 mph 71% 0 in
22:19 67.3 °F 57.6 °F 30 in NNO 2.1 mph 3.5 mph 71% 0 in
22:24 67.1 °F 57.6 °F 30 in NNO 2.4 mph 2.9 mph 71.6% 0 in
22:29 66.9 °F 57.6 °F 30 in NNO 2.2 mph 4.6 mph 72% 0 in
22:34 66.9 °F 57.6 °F 30 in NNO 1.8 mph 3.5 mph 72% 0 in
22:39 66.7 °F 57.6 °F 30 in NNO 1.9 mph 2.4 mph 72.2% 0 in
22:44 66.7 °F 57.7 °F 30 in NNO 2 mph 2.3 mph 72.8% 0 in
22:49 66.7 °F 57.7 °F 30 in NNO 1.2 mph 2.3 mph 72.8% 0 in
Murcia-Puente Tocinos, España
Compliments of Weather Underground - 2.75 mb

La estación de MeteoMurcia.com, publica sus datos en los siguientes proyectos:

Weather Underground PWS IMURCIAP2 Meteoclimatic www.awekas.at

W3Counter
Web Analytics